sensor_id;sensor_type;location;lat;lon;timestamp;P1;durP1;ratioP1;P2;durP2;ratioP2
30896;SDS011;64229;52.246;21.054;2023-12-04T00:01:20;35.28;;;13.70;;
30896;SDS011;64229;52.246;21.054;2023-12-04T00:03:46;36.75;;;14.50;;
30896;SDS011;64229;52.246;21.054;2023-12-04T00:06:12;37.55;;;13.98;;
30896;SDS011;64229;52.246;21.054;2023-12-04T00:08:38;39.42;;;15.88;;
30896;SDS011;64229;52.246;21.054;2023-12-04T00:11:04;34.03;;;13.75;;
30896;SDS011;64229;52.246;21.054;2023-12-04T00:13:30;36.30;;;13.93;;
30896;SDS011;64229;52.246;21.054;2023-12-04T00:15:56;35.15;;;14.30;;
30896;SDS011;64229;52.246;21.054;2023-12-04T00:18:22;35.95;;;14.65;;
30896;SDS011;64229;52.246;21.054;2023-12-04T00:20:47;38.10;;;14.75;;
30896;SDS011;64229;52.246;21.054;2023-12-04T00:23:12;38.55;;;14.20;;
30896;SDS011;64229;52.246;21.054;2023-12-04T00:25:38;36.40;;;14.98;;
30896;SDS011;64229;52.246;21.054;2023-12-04T00:28:03;38.15;;;15.15;;
30896;SDS011;64229;52.246;21.054;2023-12-04T00:30:29;33.65;;;15.57;;
30896;SDS011;64229;52.246;21.054;2023-12-04T00:32:54;39.95;;;15.38;;
30896;SDS011;64229;52.246;21.054;2023-12-04T00:35:20;35.08;;;14.88;;
30896;SDS011;64229;52.246;21.054;2023-12-04T00:37:45;42.25;;;16.00;;
30896;SDS011;64229;52.246;21.054;2023-12-04T00:40:10;36.30;;;14.57;;
30896;SDS011;64229;52.246;21.054;2023-12-04T00:42:36;39.55;;;16.23;;
30896;SDS011;64229;52.246;21.054;2023-12-04T00:45:02;34.88;;;14.15;;
30896;SDS011;64229;52.246;21.054;2023-12-04T00:47:28;39.05;;;15.45;;
30896;SDS011;64229;52.246;21.054;2023-12-04T00:49:53;42.03;;;15.55;;
30896;SDS011;64229;52.246;21.054;2023-12-04T00:52:19;44.20;;;16.02;;
30896;SDS011;64229;52.246;21.054;2023-12-04T00:54:46;38.42;;;15.15;;
30896;SDS011;64229;52.246;21.054;2023-12-04T00:57:19;45.17;;;16.52;;
30896;SDS011;64229;52.246;21.054;2023-12-04T00:59:46;40.70;;;15.18;;
30896;SDS011;64229;52.246;21.054;2023-12-04T01:02:33;37.00;;;14.38;;
30896;SDS011;64229;52.246;21.054;2023-12-04T01:05:00;42.20;;;16.13;;
30896;SDS011;64229;52.246;21.054;2023-12-04T01:07:28;40.05;;;15.70;;
30896;SDS011;64229;52.246;21.054;2023-12-04T01:09:54;40.22;;;15.57;;
30896;SDS011;64229;52.246;21.054;2023-12-04T01:12:19;42.60;;;16.63;;
30896;SDS011;64229;52.246;21.054;2023-12-04T01:14:46;43.10;;;17.33;;
30896;SDS011;64229;52.246;21.054;2023-12-04T01:17:11;41.33;;;15.93;;
30896;SDS011;64229;52.246;21.054;2023-12-04T01:19:37;42.83;;;17.02;;
30896;SDS011;64229;52.246;21.054;2023-12-04T01:22:02;48.28;;;17.17;;
30896;SDS011;64229;52.246;21.054;2023-12-04T01:24:27;38.92;;;15.88;;
30896;SDS011;64229;52.246;21.054;2023-12-04T01:26:53;44.25;;;16.70;;
30896;SDS011;64229;52.246;21.054;2023-12-04T01:29:18;44.25;;;16.65;;
30896;SDS011;64229;52.246;21.054;2023-12-04T01:31:43;39.42;;;14.98;;
30896;SDS011;64229;52.246;21.054;2023-12-04T01:34:09;43.20;;;17.17;;
30896;SDS011;64229;52.246;21.054;2023-12-04T01:36:34;40.53;;;15.60;;
30896;SDS011;64229;52.246;21.054;2023-12-04T01:39:00;39.58;;;15.75;;
30896;SDS011;64229;52.246;21.054;2023-12-04T01:41:25;34.58;;;14.48;;
30896;SDS011;64229;52.246;21.054;2023-12-04T01:43:50;35.47;;;16.33;;
30896;SDS011;64229;52.246;21.054;2023-12-04T01:46:16;38.10;;;14.93;;
30896;SDS011;64229;52.246;21.054;2023-12-04T01:48:44;38.35;;;13.98;;
30896;SDS011;64229;52.246;21.054;2023-12-04T01:51:10;38.30;;;15.38;;
30896;SDS011;64229;52.246;21.054;2023-12-04T01:53:38;33.85;;;14.65;;
30896;SDS011;64229;52.246;21.054;2023-12-04T01:56:05;32.67;;;13.32;;
30896;SDS011;64229;52.246;21.054;2023-12-04T01:58:31;31.38;;;13.55;;
30896;SDS011;64229;52.246;21.054;2023-12-04T02:00:57;34.60;;;13.98;;
30896;SDS011;64229;52.246;21.054;2023-12-04T02:03:23;36.25;;;13.35;;
30896;SDS011;64229;52.246;21.054;2023-12-04T02:05:49;31.77;;;12.45;;
30896;SDS011;64229;52.246;21.054;2023-12-04T02:08:17;32.03;;;12.85;;
30896;SDS011;64229;52.246;21.054;2023-12-04T02:10:43;34.20;;;12.90;;
30896;SDS011;64229;52.246;21.054;2023-12-04T02:13:09;30.13;;;11.45;;
30896;SDS011;64229;52.246;21.054;2023-12-04T02:15:35;28.98;;;12.30;;
30896;SDS011;64229;52.246;21.054;2023-12-04T02:18:01;25.20;;;11.05;;
30896;SDS011;64229;52.246;21.054;2023-12-04T02:20:33;28.67;;;11.27;;
30896;SDS011;64229;52.246;21.054;2023-12-04T02:22:59;26.30;;;11.10;;
30896;SDS011;64229;52.246;21.054;2023-12-04T02:25:28;27.70;;;10.45;;
30896;SDS011;64229;52.246;21.054;2023-12-04T02:27:54;27.48;;;11.35;;
30896;SDS011;64229;52.246;21.054;2023-12-04T02:30:23;24.40;;;10.25;;
30896;SDS011;64229;52.246;21.054;2023-12-04T02:32:50;27.42;;;10.23;;
30896;SDS011;64229;52.246;21.054;2023-12-04T02:35:22;25.33;;;10.60;;
30896;SDS011;64229;52.246;21.054;2023-12-04T02:37:49;25.48;;;10.02;;
30896;SDS011;64229;52.246;21.054;2023-12-04T02:40:16;24.45;;;10.40;;
30896;SDS011;64229;52.246;21.054;2023-12-04T02:42:41;26.63;;;10.25;;
30896;SDS011;64229;52.246;21.054;2023-12-04T02:45:07;24.20;;;9.60;;
30896;SDS011;64229;52.246;21.054;2023-12-04T02:47:32;25.15;;;9.82;;
30896;SDS011;64229;52.246;21.054;2023-12-04T02:49:58;24.73;;;9.80;;
30896;SDS011;64229;52.246;21.054;2023-12-04T02:52:23;29.42;;;11.38;;
30896;SDS011;64229;52.246;21.054;2023-12-04T02:54:48;22.67;;;9.70;;
30896;SDS011;64229;52.246;21.054;2023-12-04T02:57:14;23.95;;;10.30;;
30896;SDS011;64229;52.246;21.054;2023-12-04T02:59:39;22.67;;;9.40;;
30896;SDS011;64229;52.246;21.054;2023-12-04T03:02:05;25.98;;;9.88;;
30896;SDS011;64229;52.246;21.054;2023-12-04T03:04:30;25.48;;;9.98;;
30896;SDS011;64229;52.246;21.054;2023-12-04T03:06:56;22.67;;;9.25;;
30896;SDS011;64229;52.246;21.054;2023-12-04T03:09:22;23.35;;;9.18;;
30896;SDS011;64229;52.246;21.054;2023-12-04T03:11:47;20.73;;;8.52;;
30896;SDS011;64229;52.246;21.054;2023-12-04T03:14:13;22.42;;;9.18;;
30896;SDS011;64229;52.246;21.054;2023-12-04T03:16:38;20.85;;;9.15;;
30896;SDS011;64229;52.246;21.054;2023-12-04T03:19:03;22.60;;;8.18;;
30896;SDS011;64229;52.246;21.054;2023-12-04T03:21:29;20.17;;;8.93;;
30896;SDS011;64229;52.246;21.054;2023-12-04T03:23:54;18.27;;;8.20;;
30896;SDS011;64229;52.246;21.054;2023-12-04T03:26:20;24.02;;;10.60;;
30896;SDS011;64229;52.246;21.054;2023-12-04T03:28:45;24.10;;;9.48;;
30896;SDS011;64229;52.246;21.054;2023-12-04T03:31:10;23.48;;;9.45;;
30896;SDS011;64229;52.246;21.054;2023-12-04T03:33:36;24.38;;;9.60;;
30896;SDS011;64229;52.246;21.054;2023-12-04T03:36:02;21.98;;;10.00;;
30896;SDS011;64229;52.246;21.054;2023-12-04T03:38:27;21.33;;;9.25;;
30896;SDS011;64229;52.246;21.054;2023-12-04T03:40:52;25.42;;;10.68;;
30896;SDS011;64229;52.246;21.054;2023-12-04T03:43:18;22.92;;;9.55;;
30896;SDS011;64229;52.246;21.054;2023-12-04T03:45:43;23.02;;;9.70;;
30896;SDS011;64229;52.246;21.054;2023-12-04T03:48:08;26.75;;;10.23;;
30896;SDS011;64229;52.246;21.054;2023-12-04T03:50:34;22.27;;;10.07;;
30896;SDS011;64229;52.246;21.054;2023-12-04T03:52:59;25.75;;;9.50;;
30896;SDS011;64229;52.246;21.054;2023-12-04T03:55:25;28.63;;;10.10;;
30896;SDS011;64229;52.246;21.054;2023-12-04T03:57:50;21.17;;;10.07;;
30896;SDS011;64229;52.246;21.054;2023-12-04T04:00:16;25.88;;;10.00;;
30896;SDS011;64229;52.246;21.054;2023-12-04T04:02:42;24.95;;;10.05;;
30896;SDS011;64229;52.246;21.054;2023-12-04T04:05:09;22.45;;;10.00;;
30896;SDS011;64229;52.246;21.054;2023-12-04T04:07:35;26.10;;;10.80;;
30896;SDS011;64229;52.246;21.054;2023-12-04T04:10:00;27.73;;;10.57;;
30896;SDS011;64229;52.246;21.054;2023-12-04T04:12:29;25.45;;;10.60;;
30896;SDS011;64229;52.246;21.054;2023-12-04T04:14:55;25.35;;;10.27;;
30896;SDS011;64229;52.246;21.054;2023-12-04T04:17:21;29.38;;;11.68;;
30896;SDS011;64229;52.246;21.054;2023-12-04T04:19:46;30.80;;;10.60;;
30896;SDS011;64229;52.246;21.054;2023-12-04T04:22:11;27.15;;;10.70;;
30896;SDS011;64229;52.246;21.054;2023-12-04T04:24:37;27.23;;;10.50;;
30896;SDS011;64229;52.246;21.054;2023-12-04T04:27:02;30.20;;;11.95;;
30896;SDS011;64229;52.246;21.054;2023-12-04T04:29:27;26.00;;;10.88;;
30896;SDS011;64229;52.246;21.054;2023-12-04T04:31:53;27.15;;;10.55;;
30896;SDS011;64229;52.246;21.054;2023-12-04T04:34:19;26.63;;;10.98;;
30896;SDS011;64229;52.246;21.054;2023-12-04T04:36:46;28.40;;;11.13;;
30896;SDS011;64229;52.246;21.054;2023-12-04T04:39:11;28.80;;;11.10;;
30896;SDS011;64229;52.246;21.054;2023-12-04T04:41:38;36.65;;;12.02;;
30896;SDS011;64229;52.246;21.054;2023-12-04T04:44:04;28.63;;;11.93;;
30896;SDS011;64229;52.246;21.054;2023-12-04T04:46:29;27.58;;;11.05;;
30896;SDS011;64229;52.246;21.054;2023-12-04T04:48:55;25.85;;;11.38;;
30896;SDS011;64229;52.246;21.054;2023-12-04T04:51:21;30.35;;;11.27;;
30896;SDS011;64229;52.246;21.054;2023-12-04T04:53:46;30.83;;;11.43;;
30896;SDS011;64229;52.246;21.054;2023-12-04T04:56:12;27.48;;;11.25;;
30896;SDS011;64229;52.246;21.054;2023-12-04T04:58:37;34.53;;;12.05;;
30896;SDS011;64229;52.246;21.054;2023-12-04T05:01:03;30.92;;;11.43;;
30896;SDS011;64229;52.246;21.054;2023-12-04T05:03:29;28.42;;;10.73;;
30896;SDS011;64229;52.246;21.054;2023-12-04T05:05:54;24.33;;;10.80;;
30896;SDS011;64229;52.246;21.054;2023-12-04T05:08:20;30.30;;;11.77;;
30896;SDS011;64229;52.246;21.054;2023-12-04T05:10:45;28.13;;;11.82;;
30896;SDS011;64229;52.246;21.054;2023-12-04T05:13:10;31.55;;;12.45;;
30896;SDS011;64229;52.246;21.054;2023-12-04T05:15:36;30.98;;;10.93;;
30896;SDS011;64229;52.246;21.054;2023-12-04T05:18:01;27.27;;;11.93;;
30896;SDS011;64229;52.246;21.054;2023-12-04T05:20:26;27.95;;;12.25;;
30896;SDS011;64229;52.246;21.054;2023-12-04T05:22:52;27.67;;;11.68;;
30896;SDS011;64229;52.246;21.054;2023-12-04T05:25:17;28.38;;;10.80;;
30896;SDS011;64229;52.246;21.054;2023-12-04T05:27:42;35.08;;;11.95;;
30896;SDS011;64229;52.246;21.054;2023-12-04T05:30:08;27.95;;;11.80;;
30896;SDS011;64229;52.246;21.054;2023-12-04T05:32:33;32.17;;;12.23;;
30896;SDS011;64229;52.246;21.054;2023-12-04T05:34:59;28.80;;;11.10;;
30896;SDS011;64229;52.246;21.054;2023-12-04T05:37:24;31.05;;;11.38;;
30896;SDS011;64229;52.246;21.054;2023-12-04T05:39:49;27.73;;;11.40;;
30896;SDS011;64229;52.246;21.054;2023-12-04T05:42:15;31.27;;;12.25;;
30896;SDS011;64229;52.246;21.054;2023-12-04T05:44:41;30.55;;;11.23;;
30896;SDS011;64229;52.246;21.054;2023-12-04T05:47:06;28.08;;;12.55;;
30896;SDS011;64229;52.246;21.054;2023-12-04T05:49:33;34.55;;;12.48;;
30896;SDS011;64229;52.246;21.054;2023-12-04T05:51:58;31.42;;;14.07;;
30896;SDS011;64229;52.246;21.054;2023-12-04T05:54:24;27.80;;;12.13;;
30896;SDS011;64229;52.246;21.054;2023-12-04T05:56:49;29.55;;;12.55;;
30896;SDS011;64229;52.246;21.054;2023-12-04T05:59:15;28.25;;;12.27;;
30896;SDS011;64229;52.246;21.054;2023-12-04T06:01:40;30.85;;;11.55;;
30896;SDS011;64229;52.246;21.054;2023-12-04T06:04:06;32.42;;;12.63;;
30896;SDS011;64229;52.246;21.054;2023-12-04T06:06:31;32.47;;;12.93;;
30896;SDS011;64229;52.246;21.054;2023-12-04T06:08:56;31.58;;;12.20;;
30896;SDS011;64229;52.246;21.054;2023-12-04T06:11:21;30.27;;;12.52;;
30896;SDS011;64229;52.246;21.054;2023-12-04T06:13:47;34.83;;;12.65;;
30896;SDS011;64229;52.246;21.054;2023-12-04T06:16:13;29.33;;;11.90;;
30896;SDS011;64229;52.246;21.054;2023-12-04T06:18:38;34.03;;;12.43;;
30896;SDS011;64229;52.246;21.054;2023-12-04T06:21:03;28.65;;;12.25;;
30896;SDS011;64229;52.246;21.054;2023-12-04T06:23:29;34.03;;;12.90;;
30896;SDS011;64229;52.246;21.054;2023-12-04T06:25:55;31.27;;;12.68;;
30896;SDS011;64229;52.246;21.054;2023-12-04T06:28:21;33.85;;;13.02;;
30896;SDS011;64229;52.246;21.054;2023-12-04T06:30:46;33.58;;;12.50;;
30896;SDS011;64229;52.246;21.054;2023-12-04T06:33:12;31.33;;;13.43;;
30896;SDS011;64229;52.246;21.054;2023-12-04T06:35:39;30.83;;;13.07;;
30896;SDS011;64229;52.246;21.054;2023-12-04T06:38:05;25.45;;;11.45;;
30896;SDS011;64229;52.246;21.054;2023-12-04T06:40:32;30.65;;;12.32;;
30896;SDS011;64229;52.246;21.054;2023-12-04T06:42:57;35.72;;;13.25;;
30896;SDS011;64229;52.246;21.054;2023-12-04T06:45:23;32.85;;;12.80;;
30896;SDS011;64229;52.246;21.054;2023-12-04T06:47:49;33.08;;;12.13;;
30896;SDS011;64229;52.246;21.054;2023-12-04T06:50:16;30.45;;;12.52;;
30896;SDS011;64229;52.246;21.054;2023-12-04T06:52:41;30.77;;;12.80;;
30896;SDS011;64229;52.246;21.054;2023-12-04T06:55:07;35.03;;;14.00;;
30896;SDS011;64229;52.246;21.054;2023-12-04T06:57:33;35.08;;;14.00;;
30896;SDS011;64229;52.246;21.054;2023-12-04T06:59:59;33.70;;;13.63;;
30896;SDS011;64229;52.246;21.054;2023-12-04T07:02:24;31.55;;;13.45;;
30896;SDS011;64229;52.246;21.054;2023-12-04T07:04:49;29.63;;;12.45;;
30896;SDS011;64229;52.246;21.054;2023-12-04T07:07:15;38.13;;;13.57;;
30896;SDS011;64229;52.246;21.054;2023-12-04T07:09:40;31.77;;;12.35;;
30896;SDS011;64229;52.246;21.054;2023-12-04T07:12:06;38.65;;;13.63;;
30896;SDS011;64229;52.246;21.054;2023-12-04T07:14:31;32.65;;;12.98;;
30896;SDS011;64229;52.246;21.054;2023-12-04T07:16:57;35.50;;;13.40;;
30896;SDS011;64229;52.246;21.054;2023-12-04T07:19:22;33.90;;;13.75;;
30896;SDS011;64229;52.246;21.054;2023-12-04T07:21:48;39.30;;;14.45;;
30896;SDS011;64229;52.246;21.054;2023-12-04T07:24:14;37.63;;;12.82;;
30896;SDS011;64229;52.246;21.054;2023-12-04T07:26:39;35.38;;;12.73;;
30896;SDS011;64229;52.246;21.054;2023-12-04T07:29:04;38.10;;;13.90;;
30896;SDS011;64229;52.246;21.054;2023-12-04T07:31:30;37.95;;;14.25;;
30896;SDS011;64229;52.246;21.054;2023-12-04T07:33:55;40.45;;;14.48;;
30896;SDS011;64229;52.246;21.054;2023-12-04T07:36:22;39.05;;;13.98;;
30896;SDS011;64229;52.246;21.054;2023-12-04T07:38:48;34.33;;;13.45;;
30896;SDS011;64229;52.246;21.054;2023-12-04T07:41:15;40.17;;;14.18;;
30896;SDS011;64229;52.246;21.054;2023-12-04T07:43:42;39.70;;;15.18;;
30896;SDS011;64229;52.246;21.054;2023-12-04T07:46:09;32.22;;;13.50;;
30896;SDS011;64229;52.246;21.054;2023-12-04T07:48:35;43.58;;;15.60;;
30896;SDS011;64229;52.246;21.054;2023-12-04T07:51:01;42.10;;;13.93;;
30896;SDS011;64229;52.246;21.054;2023-12-04T07:53:26;40.17;;;14.05;;
30896;SDS011;64229;52.246;21.054;2023-12-04T07:55:51;39.67;;;15.70;;
30896;SDS011;64229;52.246;21.054;2023-12-04T07:58:17;47.50;;;15.07;;
30896;SDS011;64229;52.246;21.054;2023-12-04T08:00:46;43.10;;;15.52;;
30896;SDS011;64229;52.246;21.054;2023-12-04T08:03:12;38.75;;;15.65;;
30896;SDS011;64229;52.246;21.054;2023-12-04T08:05:38;35.28;;;13.50;;
30896;SDS011;64229;52.246;21.054;2023-12-04T08:08:03;44.53;;;15.20;;
30896;SDS011;64229;52.246;21.054;2023-12-04T08:10:29;39.92;;;14.38;;
30896;SDS011;64229;52.246;21.054;2023-12-04T08:12:54;46.08;;;15.10;;
30896;SDS011;64229;52.246;21.054;2023-12-04T08:15:19;44.28;;;15.35;;
30896;SDS011;64229;52.246;21.054;2023-12-04T08:17:45;37.75;;;13.82;;
30896;SDS011;64229;52.246;21.054;2023-12-04T08:20:10;37.50;;;14.07;;
30896;SDS011;64229;52.246;21.054;2023-12-04T08:22:40;46.10;;;16.25;;
30896;SDS011;64229;52.246;21.054;2023-12-04T08:25:06;36.17;;;12.82;;
30896;SDS011;64229;52.246;21.054;2023-12-04T08:27:32;35.60;;;13.18;;
30896;SDS011;64229;52.246;21.054;2023-12-04T08:29:58;35.30;;;12.80;;
30896;SDS011;64229;52.246;21.054;2023-12-04T08:32:23;33.65;;;12.95;;
30896;SDS011;64229;52.246;21.054;2023-12-04T08:34:51;37.53;;;12.95;;
30896;SDS011;64229;52.246;21.054;2023-12-04T08:37:16;36.00;;;13.27;;
30896;SDS011;64229;52.246;21.054;2023-12-04T08:39:42;40.58;;;15.40;;
30896;SDS011;64229;52.246;21.054;2023-12-04T08:42:07;35.97;;;13.68;;
30896;SDS011;64229;52.246;21.054;2023-12-04T08:44:33;32.30;;;13.52;;
30896;SDS011;64229;52.246;21.054;2023-12-04T08:46:59;45.53;;;15.95;;
30896;SDS011;64229;52.246;21.054;2023-12-04T08:49:24;40.28;;;14.27;;
30896;SDS011;64229;52.246;21.054;2023-12-04T08:51:51;37.20;;;14.38;;
30896;SDS011;64229;52.246;21.054;2023-12-04T08:54:17;43.83;;;15.43;;
30896;SDS011;64229;52.246;21.054;2023-12-04T08:56:43;41.38;;;13.55;;
30896;SDS011;64229;52.246;21.054;2023-12-04T08:59:09;43.60;;;15.25;;
30896;SDS011;64229;52.246;21.054;2023-12-04T09:01:35;41.53;;;15.27;;
30896;SDS011;64229;52.246;21.054;2023-12-04T09:04:00;40.58;;;13.70;;
30896;SDS011;64229;52.246;21.054;2023-12-04T09:06:25;39.28;;;13.93;;
30896;SDS011;64229;52.246;21.054;2023-12-04T09:08:51;39.03;;;15.02;;
30896;SDS011;64229;52.246;21.054;2023-12-04T09:11:16;39.25;;;14.13;;
30896;SDS011;64229;52.246;21.054;2023-12-04T09:13:41;43.05;;;14.63;;
30896;SDS011;64229;52.246;21.054;2023-12-04T09:16:07;41.03;;;15.65;;
30896;SDS011;64229;52.246;21.054;2023-12-04T09:18:33;41.55;;;13.70;;
30896;SDS011;64229;52.246;21.054;2023-12-04T09:20:59;41.25;;;13.80;;
30896;SDS011;64229;52.246;21.054;2023-12-04T09:23:24;37.60;;;14.35;;
30896;SDS011;64229;52.246;21.054;2023-12-04T09:25:50;38.92;;;14.48;;
30896;SDS011;64229;52.246;21.054;2023-12-04T09:28:15;33.85;;;13.52;;
30896;SDS011;64229;52.246;21.054;2023-12-04T09:30:41;40.38;;;13.77;;
30896;SDS011;64229;52.246;21.054;2023-12-04T09:33:07;44.25;;;15.00;;
30896;SDS011;64229;52.246;21.054;2023-12-04T09:35:32;36.80;;;12.93;;
30896;SDS011;64229;52.246;21.054;2023-12-04T09:37:58;39.15;;;13.27;;
30896;SDS011;64229;52.246;21.054;2023-12-04T09:40:23;34.58;;;13.68;;
30896;SDS011;64229;52.246;21.054;2023-12-04T09:42:49;44.08;;;15.00;;
30896;SDS011;64229;52.246;21.054;2023-12-04T09:45:14;37.30;;;14.10;;
30896;SDS011;64229;52.246;21.054;2023-12-04T09:47:41;38.55;;;14.13;;
30896;SDS011;64229;52.246;21.054;2023-12-04T09:50:07;43.92;;;14.02;;
30896;SDS011;64229;52.246;21.054;2023-12-04T09:52:34;39.92;;;13.82;;
30896;SDS011;64229;52.246;21.054;2023-12-04T09:55:01;37.13;;;13.88;;
30896;SDS011;64229;52.246;21.054;2023-12-04T09:57:26;34.03;;;13.38;;
30896;SDS011;64229;52.246;21.054;2023-12-04T09:59:53;34.95;;;13.25;;
30896;SDS011;64229;52.246;21.054;2023-12-04T10:02:19;32.42;;;11.63;;
30896;SDS011;64229;52.246;21.054;2023-12-04T10:04:46;39.97;;;14.38;;
30896;SDS011;64229;52.246;21.054;2023-12-04T10:07:12;36.50;;;14.55;;
30896;SDS011;64229;52.246;21.054;2023-12-04T10:09:37;37.80;;;13.63;;
30896;SDS011;64229;52.246;21.054;2023-12-04T10:12:03;43.33;;;14.82;;
30896;SDS011;64229;52.246;21.054;2023-12-04T10:14:28;36.95;;;13.15;;
30896;SDS011;64229;52.246;21.054;2023-12-04T10:16:53;36.00;;;14.25;;
30896;SDS011;64229;52.246;21.054;2023-12-04T10:21:50;41.10;;;12.32;;
30896;SDS011;64229;52.246;21.054;2023-12-04T10:24:29;35.30;;;13.45;;
30896;SDS011;64229;52.246;21.054;2023-12-04T10:26:55;38.10;;;14.40;;
30896;SDS011;64229;52.246;21.054;2023-12-04T10:29:21;37.53;;;13.77;;
30896;SDS011;64229;52.246;21.054;2023-12-04T10:31:47;37.58;;;13.75;;
30896;SDS011;64229;52.246;21.054;2023-12-04T10:34:15;39.65;;;14.15;;
30896;SDS011;64229;52.246;21.054;2023-12-04T10:36:40;37.03;;;13.85;;
30896;SDS011;64229;52.246;21.054;2023-12-04T10:39:06;42.75;;;15.40;;
30896;SDS011;64229;52.246;21.054;2023-12-04T10:41:31;40.28;;;14.38;;
30896;SDS011;64229;52.246;21.054;2023-12-04T10:43:57;38.60;;;13.52;;
30896;SDS011;64229;52.246;21.054;2023-12-04T10:46:26;34.95;;;14.25;;
30896;SDS011;64229;52.246;21.054;2023-12-04T10:48:53;42.22;;;15.07;;
30896;SDS011;64229;52.246;21.054;2023-12-04T10:51:19;32.67;;;12.52;;
30896;SDS011;64229;52.246;21.054;2023-12-04T10:53:47;36.72;;;14.73;;
30896;SDS011;64229;52.246;21.054;2023-12-04T10:56:36;34.60;;;12.65;;
30896;SDS011;64229;52.246;21.054;2023-12-04T10:59:07;38.35;;;13.27;;
30896;SDS011;64229;52.246;21.054;2023-12-04T11:01:37;38.92;;;13.52;;
30896;SDS011;64229;52.246;21.054;2023-12-04T11:04:03;33.65;;;12.55;;
30896;SDS011;64229;52.246;21.054;2023-12-04T11:06:35;34.50;;;12.55;;
30896;SDS011;64229;52.246;21.054;2023-12-04T11:09:05;37.15;;;13.35;;
30896;SDS011;64229;52.246;21.054;2023-12-04T11:11:34;33.58;;;12.60;;
30896;SDS011;64229;52.246;21.054;2023-12-04T11:14:01;38.90;;;12.70;;
30896;SDS011;64229;52.246;21.054;2023-12-04T11:16:50;34.22;;;11.80;;
30896;SDS011;64229;52.246;21.054;2023-12-04T11:22:06;32.88;;;11.57;;
30896;SDS011;64229;52.246;21.054;2023-12-04T11:24:34;33.50;;;12.13;;
30896;SDS011;64229;52.246;21.054;2023-12-04T11:27:00;31.27;;;12.18;;
30896;SDS011;64229;52.246;21.054;2023-12-04T11:29:26;31.27;;;12.30;;
30896;SDS011;64229;52.246;21.054;2023-12-04T11:31:54;32.03;;;12.20;;
30896;SDS011;64229;52.246;21.054;2023-12-04T11:34:19;32.80;;;12.10;;
30896;SDS011;64229;52.246;21.054;2023-12-04T11:36:45;30.65;;;12.13;;
30896;SDS011;64229;52.246;21.054;2023-12-04T11:39:10;33.72;;;11.80;;
30896;SDS011;64229;52.246;21.054;2023-12-04T11:41:36;29.65;;;10.52;;
30896;SDS011;64229;52.246;21.054;2023-12-04T11:44:02;29.05;;;9.93;;
30896;SDS011;64229;52.246;21.054;2023-12-04T11:46:28;31.17;;;10.40;;
30896;SDS011;64229;52.246;21.054;2023-12-04T11:48:56;27.50;;;9.93;;
30896;SDS011;64229;52.246;21.054;2023-12-04T11:54:03;30.77;;;11.10;;
30896;SDS011;64229;52.246;21.054;2023-12-04T11:56:30;26.42;;;10.30;;
30896;SDS011;64229;52.246;21.054;2023-12-04T11:58:55;23.85;;;9.18;;
30896;SDS011;64229;52.246;21.054;2023-12-04T12:01:28;31.58;;;9.65;;
30896;SDS011;64229;52.246;21.054;2023-12-04T12:03:58;24.05;;;10.30;;
30896;SDS011;64229;52.246;21.054;2023-12-04T12:06:24;26.55;;;10.63;;
30896;SDS011;64229;52.246;21.054;2023-12-04T12:08:49;24.55;;;9.82;;
30896;SDS011;64229;52.246;21.054;2023-12-04T12:11:15;28.05;;;10.68;;
30896;SDS011;64229;52.246;21.054;2023-12-04T12:13:41;27.48;;;9.45;;
30896;SDS011;64229;52.246;21.054;2023-12-04T12:16:06;23.27;;;9.40;;
30896;SDS011;64229;52.246;21.054;2023-12-04T12:18:34;27.83;;;9.77;;
30896;SDS011;64229;52.246;21.054;2023-12-04T12:20:59;26.60;;;10.85;;
30896;SDS011;64229;52.246;21.054;2023-12-04T12:23:25;27.65;;;10.57;;
30896;SDS011;64229;52.246;21.054;2023-12-04T12:25:51;28.55;;;10.05;;
30896;SDS011;64229;52.246;21.054;2023-12-04T12:28:17;29.88;;;10.75;;
30896;SDS011;64229;52.246;21.054;2023-12-04T12:30:42;26.92;;;10.32;;
30896;SDS011;64229;52.246;21.054;2023-12-04T12:33:12;29.15;;;10.98;;
30896;SDS011;64229;52.246;21.054;2023-12-04T12:35:38;27.95;;;10.45;;
30896;SDS011;64229;52.246;21.054;2023-12-04T12:38:03;32.95;;;11.48;;
30896;SDS011;64229;52.246;21.054;2023-12-04T12:40:29;36.08;;;11.85;;
30896;SDS011;64229;52.246;21.054;2023-12-04T12:43:04;29.13;;;12.00;;
30896;SDS011;64229;52.246;21.054;2023-12-04T12:45:38;37.30;;;11.25;;
30896;SDS011;64229;52.246;21.054;2023-12-04T12:48:12;33.22;;;12.65;;
30896;SDS011;64229;52.246;21.054;2023-12-04T12:50:38;30.10;;;11.63;;
30896;SDS011;64229;52.246;21.054;2023-12-04T12:53:03;32.13;;;12.32;;
30896;SDS011;64229;52.246;21.054;2023-12-04T12:55:29;33.30;;;12.68;;
30896;SDS011;64229;52.246;21.054;2023-12-04T12:57:57;33.50;;;12.57;;
30896;SDS011;64229;52.246;21.054;2023-12-04T13:00:23;29.67;;;12.82;;
30896;SDS011;64229;52.246;21.054;2023-12-04T13:02:48;30.52;;;11.80;;
30896;SDS011;64229;52.246;21.054;2023-12-04T13:05:16;34.50;;;13.02;;
30896;SDS011;64229;52.246;21.054;2023-12-04T13:07:42;33.33;;;11.88;;
30896;SDS011;64229;52.246;21.054;2023-12-04T13:10:08;27.95;;;10.95;;
30896;SDS011;64229;52.246;21.054;2023-12-04T13:12:33;32.70;;;13.32;;
30896;SDS011;64229;52.246;21.054;2023-12-04T13:15:00;31.17;;;12.18;;
30896;SDS011;64229;52.246;21.054;2023-12-04T13:17:26;36.85;;;12.90;;
30896;SDS011;64229;52.246;21.054;2023-12-04T13:19:51;33.70;;;13.35;;
30896;SDS011;64229;52.246;21.054;2023-12-04T13:22:17;35.00;;;11.63;;
30896;SDS011;64229;52.246;21.054;2023-12-04T13:24:42;34.30;;;12.88;;
30896;SDS011;64229;52.246;21.054;2023-12-04T13:27:07;34.55;;;13.07;;
30896;SDS011;64229;52.246;21.054;2023-12-04T13:29:33;32.15;;;12.43;;
30896;SDS011;64229;52.246;21.054;2023-12-04T13:31:59;34.45;;;13.48;;
30896;SDS011;64229;52.246;21.054;2023-12-04T13:34:24;36.53;;;13.82;;
30896;SDS011;64229;52.246;21.054;2023-12-04T13:36:50;29.17;;;13.13;;
30896;SDS011;64229;52.246;21.054;2023-12-04T13:39:15;35.42;;;13.70;;
30896;SDS011;64229;52.246;21.054;2023-12-04T13:42:12;31.65;;;13.23;;
30896;SDS011;64229;52.246;21.054;2023-12-04T13:44:56;29.83;;;10.50;;
30896;SDS011;64229;52.246;21.054;2023-12-04T13:47:21;36.90;;;14.35;;
30896;SDS011;64229;52.246;21.054;2023-12-04T13:49:46;35.58;;;13.60;;
30896;SDS011;64229;52.246;21.054;2023-12-04T13:52:12;43.47;;;14.50;;
30896;SDS011;64229;52.246;21.054;2023-12-04T13:54:37;32.03;;;14.18;;
30896;SDS011;64229;52.246;21.054;2023-12-04T13:57:12;38.05;;;14.57;;
30896;SDS011;64229;52.246;21.054;2023-12-04T13:59:46;30.02;;;12.75;;
30896;SDS011;64229;52.246;21.054;2023-12-04T14:02:11;41.42;;;14.10;;
30896;SDS011;64229;52.246;21.054;2023-12-04T14:04:37;32.30;;;14.65;;
30896;SDS011;64229;52.246;21.054;2023-12-04T14:07:04;34.95;;;13.18;;
30896;SDS011;64229;52.246;21.054;2023-12-04T14:09:29;37.33;;;13.88;;
30896;SDS011;64229;52.246;21.054;2023-12-04T14:11:54;43.97;;;13.50;;
30896;SDS011;64229;52.246;21.054;2023-12-04T14:14:20;36.45;;;13.95;;